sensor_id;sensor_type;location;lat;lon;timestamp;temperature;humidity
16247;DHT22;8231;50.866;7.944;2022-07-15T00:00:21;11.90;99.90
16247;DHT22;8231;50.866;7.944;2022-07-15T00:02:49;11.90;99.90
16247;DHT22;8231;50.866;7.944;2022-07-15T00:05:17;11.90;99.90
16247;DHT22;8231;50.866;7.944;2022-07-15T00:07:45;11.80;99.90
16247;DHT22;8231;50.866;7.944;2022-07-15T00:10:13;11.70;99.90
16247;DHT22;8231;50.866;7.944;2022-07-15T00:12:41;11.70;99.90
16247;DHT22;8231;50.866;7.944;2022-07-15T00:15:10;11.70;99.90
16247;DHT22;8231;50.866;7.944;2022-07-15T00:17:40;11.60;99.90
16247;DHT22;8231;50.866;7.944;2022-07-15T00:20:10;11.60;99.90
16247;DHT22;8231;50.866;7.944;2022-07-15T00:22:39;11.50;99.90
16247;DHT22;8231;50.866;7.944;2022-07-15T00:25:08;11.50;99.90
16247;DHT22;8231;50.866;7.944;2022-07-15T00:27:50;11.40;99.90
16247;DHT22;8231;50.866;7.944;2022-07-15T00:30:18;11.30;99.90
16247;DHT22;8231;50.866;7.944;2022-07-15T00:32:48;11.30;99.90
16247;DHT22;8231;50.866;7.944;2022-07-15T00:35:16;11.20;99.90
16247;DHT22;8231;50.866;7.944;2022-07-15T00:37:44;11.20;99.90
16247;DHT22;8231;50.866;7.944;2022-07-15T00:40:13;11.20;99.90
16247;DHT22;8231;50.866;7.944;2022-07-15T00:42:41;11.10;99.90
16247;DHT22;8231;50.866;7.944;2022-07-15T00:45:13;11.10;99.90
16247;DHT22;8231;50.866;7.944;2022-07-15T00:47:42;11.10;99.90
16247;DHT22;8231;50.866;7.944;2022-07-15T00:50:13;11.00;99.90
16247;DHT22;8231;50.866;7.944;2022-07-15T00:52:44;11.10;99.90
16247;DHT22;8231;50.866;7.944;2022-07-15T00:55:13;11.10;99.90
16247;DHT22;8231;50.866;7.944;2022-07-15T00:57:44;11.10;99.90
16247;DHT22;8231;50.866;7.944;2022-07-15T01:00:13;11.10;99.90
16247;DHT22;8231;50.866;7.944;2022-07-15T01:02:43;11.00;99.90
16247;DHT22;8231;50.866;7.944;2022-07-15T01:05:19;11.00;99.90
16247;DHT22;8231;50.866;7.944;2022-07-15T01:07:48;10.90;99.90
16247;DHT22;8231;50.866;7.944;2022-07-15T01:10:18;10.90;99.90
16247;DHT22;8231;50.866;7.944;2022-07-15T01:12:48;10.90;99.90
16247;DHT22;8231;50.866;7.944;2022-07-15T01:15:22;10.80;99.90
16247;DHT22;8231;50.866;7.944;2022-07-15T01:17:52;10.70;99.90
16247;DHT22;8231;50.866;7.944;2022-07-15T01:20:22;10.60;99.90
16247;DHT22;8231;50.866;7.944;2022-07-15T01:23:00;10.60;99.90
16247;DHT22;8231;50.866;7.944;2022-07-15T01:25:49;10.60;99.90
16247;DHT22;8231;50.866;7.944;2022-07-15T01:28:20;10.60;99.90
16247;DHT22;8231;50.866;7.944;2022-07-15T01:30:49;10.60;99.90
16247;DHT22;8231;50.866;7.944;2022-07-15T01:33:18;10.70;99.90
16247;DHT22;8231;50.866;7.944;2022-07-15T01:35:46;10.60;99.90
16247;DHT22;8231;50.866;7.944;2022-07-15T01:38:15;10.60;99.90
16247;DHT22;8231;50.866;7.944;2022-07-15T01:40:45;10.70;99.90
16247;DHT22;8231;50.866;7.944;2022-07-15T01:43:14;10.40;99.90
16247;DHT22;8231;50.866;7.944;2022-07-15T01:45:43;10.40;99.90
16247;DHT22;8231;50.866;7.944;2022-07-15T01:48:16;10.40;99.90
16247;DHT22;8231;50.866;7.944;2022-07-15T01:51:21;10.30;99.90
16247;DHT22;8231;50.866;7.944;2022-07-15T01:53:51;10.60;99.90
16247;DHT22;8231;50.866;7.944;2022-07-15T01:56:19;10.30;99.90
16247;DHT22;8231;50.866;7.944;2022-07-15T01:58:47;10.20;99.90
16247;DHT22;8231;50.866;7.944;2022-07-15T02:01:15;10.20;99.90
16247;DHT22;8231;50.866;7.944;2022-07-15T02:03:45;10.30;99.90
16247;DHT22;8231;50.866;7.944;2022-07-15T02:06:13;10.20;99.90
16247;DHT22;8231;50.866;7.944;2022-07-15T02:08:42;10.20;99.90
16247;DHT22;8231;50.866;7.944;2022-07-15T02:11:15;10.10;99.90
16247;DHT22;8231;50.866;7.944;2022-07-15T02:13:47;10.10;99.90
16247;DHT22;8231;50.866;7.944;2022-07-15T02:16:17;10.10;99.90
16247;DHT22;8231;50.866;7.944;2022-07-15T02:18:45;10.00;99.90
16247;DHT22;8231;50.866;7.944;2022-07-15T02:21:13;10.00;99.90
16247;DHT22;8231;50.866;7.944;2022-07-15T02:23:42;10.00;99.90
16247;DHT22;8231;50.866;7.944;2022-07-15T02:26:10;10.00;99.90
16247;DHT22;8231;50.866;7.944;2022-07-15T02:28:40;10.00;99.90
16247;DHT22;8231;50.866;7.944;2022-07-15T02:31:09;10.00;99.90
16247;DHT22;8231;50.866;7.944;2022-07-15T02:33:39;10.00;99.90
16247;DHT22;8231;50.866;7.944;2022-07-15T02:36:09;10.00;99.90
16247;DHT22;8231;50.866;7.944;2022-07-15T02:38:40;9.90;99.90
16247;DHT22;8231;50.866;7.944;2022-07-15T02:41:10;9.90;99.90
16247;DHT22;8231;50.866;7.944;2022-07-15T02:43:43;9.90;99.90
16247;DHT22;8231;50.866;7.944;2022-07-15T02:46:12;9.90;99.90
16247;DHT22;8231;50.866;7.944;2022-07-15T02:48:42;10.00;99.90
16247;DHT22;8231;50.866;7.944;2022-07-15T02:51:11;10.10;99.90
16247;DHT22;8231;50.866;7.944;2022-07-15T02:53:41;10.10;99.90
16247;DHT22;8231;50.866;7.944;2022-07-15T02:56:14;10.20;99.90
16247;DHT22;8231;50.866;7.944;2022-07-15T02:58:43;10.20;99.90
16247;DHT22;8231;50.866;7.944;2022-07-15T03:01:11;10.30;99.90
16247;DHT22;8231;50.866;7.944;2022-07-15T03:03:40;10.30;99.90
16247;DHT22;8231;50.866;7.944;2022-07-15T03:06:14;10.30;99.90
16247;DHT22;8231;50.866;7.944;2022-07-15T03:08:42;10.40;99.90
16247;DHT22;8231;50.866;7.944;2022-07-15T03:11:10;10.20;99.90
16247;DHT22;8231;50.866;7.944;2022-07-15T03:13:39;10.20;99.90
16247;DHT22;8231;50.866;7.944;2022-07-15T03:16:10;10.30;99.90
16247;DHT22;8231;50.866;7.944;2022-07-15T03:18:41;10.20;99.90
16247;DHT22;8231;50.866;7.944;2022-07-15T03:21:09;10.20;99.90
16247;DHT22;8231;50.866;7.944;2022-07-15T03:23:38;10.20;99.90
16247;DHT22;8231;50.866;7.944;2022-07-15T03:26:07;10.30;99.90
16247;DHT22;8231;50.866;7.944;2022-07-15T03:28:35;10.30;99.90
16247;DHT22;8231;50.866;7.944;2022-07-15T03:31:06;10.30;99.90
16247;DHT22;8231;50.866;7.944;2022-07-15T03:33:35;10.30;99.90
16247;DHT22;8231;50.866;7.944;2022-07-15T03:36:04;10.40;99.90
16247;DHT22;8231;50.866;7.944;2022-07-15T03:38:33;10.30;99.90
16247;DHT22;8231;50.866;7.944;2022-07-15T03:41:01;10.40;99.90
16247;DHT22;8231;50.866;7.944;2022-07-15T03:43:30;10.50;99.90
16247;DHT22;8231;50.866;7.944;2022-07-15T03:45:59;10.50;99.90
16247;DHT22;8231;50.866;7.944;2022-07-15T03:48:31;10.50;99.90
16247;DHT22;8231;50.866;7.944;2022-07-15T03:51:00;10.50;99.90
16247;DHT22;8231;50.866;7.944;2022-07-15T03:53:28;10.50;99.90
16247;DHT22;8231;50.866;7.944;2022-07-15T03:55:57;10.60;99.90
16247;DHT22;8231;50.866;7.944;2022-07-15T03:58:25;10.70;99.90
16247;DHT22;8231;50.866;7.944;2022-07-15T04:00:53;10.80;99.90
16247;DHT22;8231;50.866;7.944;2022-07-15T04:03:22;10.90;99.90
16247;DHT22;8231;50.866;7.944;2022-07-15T04:05:51;11.00;99.90
16247;DHT22;8231;50.866;7.944;2022-07-15T04:08:20;11.20;99.90
16247;DHT22;8231;50.866;7.944;2022-07-15T04:10:48;11.30;99.90
16247;DHT22;8231;50.866;7.944;2022-07-15T04:13:17;11.40;99.90
16247;DHT22;8231;50.866;7.944;2022-07-15T04:15:46;11.50;99.90
16247;DHT22;8231;50.866;7.944;2022-07-15T04:18:14;11.50;99.90
16247;DHT22;8231;50.866;7.944;2022-07-15T04:20:42;11.60;99.90
16247;DHT22;8231;50.866;7.944;2022-07-15T04:23:10;11.80;99.90
16247;DHT22;8231;50.866;7.944;2022-07-15T04:25:40;11.80;99.90
16247;DHT22;8231;50.866;7.944;2022-07-15T04:28:09;11.90;99.90
16247;DHT22;8231;50.866;7.944;2022-07-15T04:30:37;11.90;99.90
16247;DHT22;8231;50.866;7.944;2022-07-15T04:33:07;12.00;99.90
16247;DHT22;8231;50.866;7.944;2022-07-15T04:35:38;12.10;99.90
16247;DHT22;8231;50.866;7.944;2022-07-15T04:38:08;12.20;99.90
16247;DHT22;8231;50.866;7.944;2022-07-15T04:40:37;12.20;99.90
16247;DHT22;8231;50.866;7.944;2022-07-15T04:43:13;12.30;99.90
16247;DHT22;8231;50.866;7.944;2022-07-15T04:45:44;12.40;99.90
16247;DHT22;8231;50.866;7.944;2022-07-15T04:48:16;12.40;99.90
16247;DHT22;8231;50.866;7.944;2022-07-15T04:51:02;12.40;99.90
16247;DHT22;8231;50.866;7.944;2022-07-15T04:53:31;12.60;99.90
16247;DHT22;8231;50.866;7.944;2022-07-15T04:55:59;12.70;99.90
16247;DHT22;8231;50.866;7.944;2022-07-15T04:58:33;12.80;99.90
16247;DHT22;8231;50.866;7.944;2022-07-15T05:01:04;12.80;99.90
16247;DHT22;8231;50.866;7.944;2022-07-15T05:03:33;12.90;99.90
16247;DHT22;8231;50.866;7.944;2022-07-15T05:06:01;13.00;99.90
16247;DHT22;8231;50.866;7.944;2022-07-15T05:08:34;13.10;99.90
16247;DHT22;8231;50.866;7.944;2022-07-15T05:11:03;13.00;99.90
16247;DHT22;8231;50.866;7.944;2022-07-15T05:13:36;13.00;99.90
16247;DHT22;8231;50.866;7.944;2022-07-15T05:16:06;13.10;99.90
16247;DHT22;8231;50.866;7.944;2022-07-15T05:18:35;13.20;99.90
16247;DHT22;8231;50.866;7.944;2022-07-15T05:21:04;13.20;99.90
16247;DHT22;8231;50.866;7.944;2022-07-15T05:23:37;13.20;99.90
16247;DHT22;8231;50.866;7.944;2022-07-15T05:26:27;13.30;99.90
16247;DHT22;8231;50.866;7.944;2022-07-15T05:29:03;13.30;99.90
16247;DHT22;8231;50.866;7.944;2022-07-15T05:31:31;13.40;99.90
16247;DHT22;8231;50.866;7.944;2022-07-15T05:34:01;13.40;99.90
16247;DHT22;8231;50.866;7.944;2022-07-15T05:36:29;13.50;99.90
16247;DHT22;8231;50.866;7.944;2022-07-15T05:38:57;13.50;99.90
16247;DHT22;8231;50.866;7.944;2022-07-15T05:41:25;13.60;99.90
16247;DHT22;8231;50.866;7.944;2022-07-15T05:43:53;13.60;99.90
16247;DHT22;8231;50.866;7.944;2022-07-15T05:46:23;13.70;99.90
16247;DHT22;8231;50.866;7.944;2022-07-15T05:48:56;13.70;99.90
16247;DHT22;8231;50.866;7.944;2022-07-15T05:51:25;13.80;99.90
16247;DHT22;8231;50.866;7.944;2022-07-15T05:53:53;14.00;99.90
16247;DHT22;8231;50.866;7.944;2022-07-15T05:56:22;14.30;99.90
16247;DHT22;8231;50.866;7.944;2022-07-15T05:58:51;14.40;99.90
16247;DHT22;8231;50.866;7.944;2022-07-15T06:01:26;14.60;99.90
16247;DHT22;8231;50.866;7.944;2022-07-15T06:03:54;14.70;99.90
16247;DHT22;8231;50.866;7.944;2022-07-15T06:06:22;14.90;99.90
16247;DHT22;8231;50.866;7.944;2022-07-15T06:08:51;15.10;99.90
16247;DHT22;8231;50.866;7.944;2022-07-15T06:11:22;15.30;99.90
16247;DHT22;8231;50.866;7.944;2022-07-15T06:13:51;15.70;99.90
16247;DHT22;8231;50.866;7.944;2022-07-15T06:16:19;16.30;99.90
16247;DHT22;8231;50.866;7.944;2022-07-15T06:18:49;17.40;99.90
16247;DHT22;8231;50.866;7.944;2022-07-15T06:21:18;18.60;99.90
16247;DHT22;8231;50.866;7.944;2022-07-15T06:23:46;19.30;99.90
16247;DHT22;8231;50.866;7.944;2022-07-15T06:26:14;20.10;99.90
16247;DHT22;8231;50.866;7.944;2022-07-15T06:28:43;20.80;99.90
16247;DHT22;8231;50.866;7.944;2022-07-15T06:31:19;20.80;99.90
16247;DHT22;8231;50.866;7.944;2022-07-15T06:33:49;21.00;99.90
16247;DHT22;8231;50.866;7.944;2022-07-15T06:36:17;21.20;99.90
16247;DHT22;8231;50.866;7.944;2022-07-15T06:38:45;21.50;99.90
16247;DHT22;8231;50.866;7.944;2022-07-15T06:41:17;21.50;99.90
16247;DHT22;8231;50.866;7.944;2022-07-15T06:43:48;21.90;99.90
16247;DHT22;8231;50.866;7.944;2022-07-15T06:46:34;22.70;99.90
16247;DHT22;8231;50.866;7.944;2022-07-15T06:49:04;23.00;99.90
16247;DHT22;8231;50.866;7.944;2022-07-15T06:51:32;23.20;99.20
16247;DHT22;8231;50.866;7.944;2022-07-15T06:54:01;23.60;99.20
16247;DHT22;8231;50.866;7.944;2022-07-15T06:56:32;23.00;98.10
16247;DHT22;8231;50.866;7.944;2022-07-15T06:59:01;22.90;99.30
16247;DHT22;8231;50.866;7.944;2022-07-15T07:01:29;23.40;98.60
16247;DHT22;8231;50.866;7.944;2022-07-15T07:03:57;24.10;96.70
16247;DHT22;8231;50.866;7.944;2022-07-15T07:06:29;24.30;93.40
16247;DHT22;8231;50.866;7.944;2022-07-15T07:08:57;24.30;92.70
16247;DHT22;8231;50.866;7.944;2022-07-15T07:11:26;24.80;91.00
16247;DHT22;8231;50.866;7.944;2022-07-15T07:13:55;25.30;89.30
16247;DHT22;8231;50.866;7.944;2022-07-15T07:16:23;25.50;86.10
16247;DHT22;8231;50.866;7.944;2022-07-15T07:18:51;24.90;88.90
16247;DHT22;8231;50.866;7.944;2022-07-15T07:21:20;24.20;87.60
16247;DHT22;8231;50.866;7.944;2022-07-15T07:23:58;23.40;90.40
16247;DHT22;8231;50.866;7.944;2022-07-15T07:26:27;22.80;90.40
16247;DHT22;8231;50.866;7.944;2022-07-15T07:28:55;22.50;91.40
16247;DHT22;8231;50.866;7.944;2022-07-15T07:31:23;22.50;91.30
16247;DHT22;8231;50.866;7.944;2022-07-15T07:33:55;22.60;91.10
16247;DHT22;8231;50.866;7.944;2022-07-15T07:36:24;22.10;91.90
16247;DHT22;8231;50.866;7.944;2022-07-15T07:38:52;21.70;91.80
16247;DHT22;8231;50.866;7.944;2022-07-15T07:41:22;21.30;92.80
16247;DHT22;8231;50.866;7.944;2022-07-15T07:43:50;21.10;93.10
16247;DHT22;8231;50.866;7.944;2022-07-15T07:46:19;21.00;93.20
16247;DHT22;8231;50.866;7.944;2022-07-15T07:48:47;20.80;93.10
16247;DHT22;8231;50.866;7.944;2022-07-15T07:51:17;20.50;93.50
16247;DHT22;8231;50.866;7.944;2022-07-15T07:53:45;20.20;94.80
16247;DHT22;8231;50.866;7.944;2022-07-15T07:56:14;21.00;94.60
16247;DHT22;8231;50.866;7.944;2022-07-15T07:58:43;21.70;92.10
16247;DHT22;8231;50.866;7.944;2022-07-15T08:01:12;22.40;91.80
16247;DHT22;8231;50.866;7.944;2022-07-15T08:03:40;22.90;90.70
16247;DHT22;8231;50.866;7.944;2022-07-15T08:06:08;22.80;88.80
16247;DHT22;8231;50.866;7.944;2022-07-15T08:08:36;23.30;87.70
16247;DHT22;8231;50.866;7.944;2022-07-15T08:11:06;24.30;81.60
16247;DHT22;8231;50.866;7.944;2022-07-15T08:13:34;24.90;78.00
16247;DHT22;8231;50.866;7.944;2022-07-15T08:16:04;24.90;77.00
16247;DHT22;8231;50.866;7.944;2022-07-15T08:18:36;24.70;77.50
16247;DHT22;8231;50.866;7.944;2022-07-15T08:21:04;25.30;75.40
16247;DHT22;8231;50.866;7.944;2022-07-15T08:23:33;26.00;73.00
16247;DHT22;8231;50.866;7.944;2022-07-15T08:26:01;26.30;68.60
16247;DHT22;8231;50.866;7.944;2022-07-15T08:28:31;26.60;70.90
16247;DHT22;8231;50.866;7.944;2022-07-15T08:31:20;27.50;69.00
16247;DHT22;8231;50.866;7.944;2022-07-15T08:33:49;27.00;65.00
16247;DHT22;8231;50.866;7.944;2022-07-15T08:36:17;26.30;66.10
16247;DHT22;8231;50.866;7.944;2022-07-15T08:38:46;25.00;67.00
16247;DHT22;8231;50.866;7.944;2022-07-15T08:41:16;24.70;69.20
16247;DHT22;8231;50.866;7.944;2022-07-15T08:43:44;24.50;69.50
16247;DHT22;8231;50.866;7.944;2022-07-15T08:46:14;24.00;70.80
16247;DHT22;8231;50.866;7.944;2022-07-15T08:48:49;23.90;72.30
16247;DHT22;8231;50.866;7.944;2022-07-15T08:51:21;23.50;72.00
16247;DHT22;8231;50.866;7.944;2022-07-15T08:53:51;23.20;74.70
16247;DHT22;8231;50.866;7.944;2022-07-15T08:56:20;22.90;74.30
16247;DHT22;8231;50.866;7.944;2022-07-15T08:58:48;23.00;76.90
16247;DHT22;8231;50.866;7.944;2022-07-15T09:01:27;23.20;73.90
16247;DHT22;8231;50.866;7.944;2022-07-15T09:03:57;24.10;73.80
16247;DHT22;8231;50.866;7.944;2022-07-15T09:06:35;24.80;70.80
16247;DHT22;8231;50.866;7.944;2022-07-15T09:09:32;25.00;67.60
16247;DHT22;8231;50.866;7.944;2022-07-15T09:12:03;24.40;68.00
16247;DHT22;8231;50.866;7.944;2022-07-15T09:14:42;23.80;69.40
16247;DHT22;8231;50.866;7.944;2022-07-15T09:17:20;23.60;69.50
16247;DHT22;8231;50.866;7.944;2022-07-15T09:20:05;23.50;71.70
16247;DHT22;8231;50.866;7.944;2022-07-15T09:22:49;23.30;72.00
16247;DHT22;8231;50.866;7.944;2022-07-15T09:25:18;23.30;70.70
16247;DHT22;8231;50.866;7.944;2022-07-15T09:27:46;22.80;72.20
16247;DHT22;8231;50.866;7.944;2022-07-15T09:30:23;22.40;71.50
16247;DHT22;8231;50.866;7.944;2022-07-15T09:33:10;22.20;72.00
16247;DHT22;8231;50.866;7.944;2022-07-15T09:36:07;22.10;73.10
16247;DHT22;8231;50.866;7.944;2022-07-15T09:38:54;22.00;72.20
16247;DHT22;8231;50.866;7.944;2022-07-15T09:41:28;22.60;73.00
16247;DHT22;8231;50.866;7.944;2022-07-15T09:43:59;23.40;69.70
16247;DHT22;8231;50.866;7.944;2022-07-15T09:46:29;24.10;69.50
16247;DHT22;8231;50.866;7.944;2022-07-15T09:49:06;24.40;67.70
16247;DHT22;8231;50.866;7.944;2022-07-15T09:51:45;24.30;64.60
16247;DHT22;8231;50.866;7.944;2022-07-15T09:54:13;23.80;65.50
16247;DHT22;8231;50.866;7.944;2022-07-15T09:56:41;23.40;65.90
16247;DHT22;8231;50.866;7.944;2022-07-15T09:59:09;23.10;67.10
16247;DHT22;8231;50.866;7.944;2022-07-15T10:01:39;22.80;69.10
16247;DHT22;8231;50.866;7.944;2022-07-15T10:04:08;22.70;68.60
16247;DHT22;8231;50.866;7.944;2022-07-15T10:06:38;22.70;68.10
16247;DHT22;8231;50.866;7.944;2022-07-15T10:09:08;23.10;69.10
16247;DHT22;8231;50.866;7.944;2022-07-15T10:11:40;23.50;66.60
16247;DHT22;8231;50.866;7.944;2022-07-15T10:14:30;23.50;67.00
16247;DHT22;8231;50.866;7.944;2022-07-15T10:20:24;24.00;66.20
16247;DHT22;8231;50.866;7.944;2022-07-15T10:23:04;23.70;63.80
16247;DHT22;8231;50.866;7.944;2022-07-15T10:25:48;23.10;66.40
16247;DHT22;8231;50.866;7.944;2022-07-15T10:28:24;23.00;66.90
16247;DHT22;8231;50.866;7.944;2022-07-15T10:31:17;22.60;66.50
16247;DHT22;8231;50.866;7.944;2022-07-15T10:34:22;23.30;67.10
16247;DHT22;8231;50.866;7.944;2022-07-15T10:37:05;23.70;65.80
16247;DHT22;8231;50.866;7.944;2022-07-15T10:39:54;23.50;66.40
16247;DHT22;8231;50.866;7.944;2022-07-15T10:42:25;23.40;66.60
16247;DHT22;8231;50.866;7.944;2022-07-15T10:45:06;23.30;68.50
16247;DHT22;8231;50.866;7.944;2022-07-15T10:47:34;23.00;66.00
16247;DHT22;8231;50.866;7.944;2022-07-15T10:50:37;22.90;67.70
16247;DHT22;8231;50.866;7.944;2022-07-15T10:53:16;23.00;66.20
16247;DHT22;8231;50.866;7.944;2022-07-15T10:55:45;23.20;64.90
16247;DHT22;8231;50.866;7.944;2022-07-15T10:58:15;23.70;66.30
16247;DHT22;8231;50.866;7.944;2022-07-15T11:00:45;24.10;65.10
16247;DHT22;8231;50.866;7.944;2022-07-15T11:03:15;24.30;63.10
16247;DHT22;8231;50.866;7.944;2022-07-15T11:06:02;24.50;62.20
16247;DHT22;8231;50.866;7.944;2022-07-15T11:08:53;24.30;62.60
16247;DHT22;8231;50.866;7.944;2022-07-15T11:11:45;24.30;61.80
16247;DHT22;8231;50.866;7.944;2022-07-15T11:14:49;24.10;61.40
16247;DHT22;8231;50.866;7.944;2022-07-15T11:17:22;23.80;62.60
16247;DHT22;8231;50.866;7.944;2022-07-15T11:19:53;24.00;62.20
16247;DHT22;8231;50.866;7.944;2022-07-15T11:22:25;23.90;60.50
16247;DHT22;8231;50.866;7.944;2022-07-15T11:24:54;23.90;61.80
16247;DHT22;8231;50.866;7.944;2022-07-15T11:27:24;23.90;62.90
16247;DHT22;8231;50.866;7.944;2022-07-15T11:29:56;23.70;62.50
16247;DHT22;8231;50.866;7.944;2022-07-15T11:32:30;23.50;62.60
16247;DHT22;8231;50.866;7.944;2022-07-15T11:35:00;23.80;63.40
16247;DHT22;8231;50.866;7.944;2022-07-15T11:37:31;24.10;62.20
16247;DHT22;8231;50.866;7.944;2022-07-15T11:40:09;23.70;60.70
16247;DHT22;8231;50.866;7.944;2022-07-15T11:42:38;23.70;60.40
16247;DHT22;8231;50.866;7.944;2022-07-15T11:45:36;24.20;61.90
16247;DHT22;8231;50.866;7.944;2022-07-15T11:48:06;24.40;58.60
16247;DHT22;8231;50.866;7.944;2022-07-15T11:50:35;24.20;56.60
16247;DHT22;8231;50.866;7.944;2022-07-15T11:53:13;24.00;56.50
16247;DHT22;8231;50.866;7.944;2022-07-15T11:55:52;23.80;59.10
16247;DHT22;8231;50.866;7.944;2022-07-15T11:58:29;23.80;59.10
16247;DHT22;8231;50.866;7.944;2022-07-15T12:01:00;23.60;60.00
16247;DHT22;8231;50.866;7.944;2022-07-15T12:03:33;23.10;60.00
16247;DHT22;8231;50.866;7.944;2022-07-15T12:06:04;23.50;62.70
16247;DHT22;8231;50.866;7.944;2022-07-15T12:08:34;24.30;61.60
16247;DHT22;8231;50.866;7.944;2022-07-15T12:11:03;24.70;58.00
16247;DHT22;8231;50.866;7.944;2022-07-15T12:13:44;24.50;56.00
16247;DHT22;8231;50.866;7.944;2022-07-15T12:16:18;24.70;58.90
16247;DHT22;8231;50.866;7.944;2022-07-15T12:18:48;25.00;57.70
16247;DHT22;8231;50.866;7.944;2022-07-15T12:21:16;25.40;58.00
16247;DHT22;8231;50.866;7.944;2022-07-15T12:24:09;25.90;55.80
16247;DHT22;8231;50.866;7.944;2022-07-15T12:26:40;26.10;54.40
16247;DHT22;8231;50.866;7.944;2022-07-15T12:29:10;25.40;54.40
16247;DHT22;8231;50.866;7.944;2022-07-15T12:31:40;25.80;55.40
16247;DHT22;8231;50.866;7.944;2022-07-15T12:34:10;26.90;55.40
16247;DHT22;8231;50.866;7.944;2022-07-15T12:36:38;27.60;50.90
16247;DHT22;8231;50.866;7.944;2022-07-15T12:39:10;27.40;50.60
16247;DHT22;8231;50.866;7.944;2022-07-15T12:41:57;27.40;51.20
16247;DHT22;8231;50.866;7.944;2022-07-15T12:44:26;28.20;47.40
16247;DHT22;8231;50.866;7.944;2022-07-15T12:46:57;27.80;48.90
16247;DHT22;8231;50.866;7.944;2022-07-15T12:49:40;27.90;48.90
16247;DHT22;8231;50.866;7.944;2022-07-15T12:52:19;27.90;48.00
16247;DHT22;8231;50.866;7.944;2022-07-15T12:54:50;27.70;51.00
16247;DHT22;8231;50.866;7.944;2022-07-15T12:57:26;27.40;50.10
16247;DHT22;8231;50.866;7.944;2022-07-15T12:59:56;26.90;49.70
16247;DHT22;8231;50.866;7.944;2022-07-15T13:02:27;26.20;52.50
16247;DHT22;8231;50.866;7.944;2022-07-15T13:04:55;25.60;51.30
16247;DHT22;8231;50.866;7.944;2022-07-15T13:07:24;25.40;52.00
16247;DHT22;8231;50.866;7.944;2022-07-15T13:09:52;25.60;53.60
16247;DHT22;8231;50.866;7.944;2022-07-15T13:12:20;25.70;52.80
16247;DHT22;8231;50.866;7.944;2022-07-15T13:14:48;25.70;53.20
16247;DHT22;8231;50.866;7.944;2022-07-15T13:17:16;25.80;53.60
16247;DHT22;8231;50.866;7.944;2022-07-15T13:19:46;25.60;52.90
16247;DHT22;8231;50.866;7.944;2022-07-15T13:22:14;25.70;55.00
16247;DHT22;8231;50.866;7.944;2022-07-15T13:24:42;26.10;52.40
16247;DHT22;8231;50.866;7.944;2022-07-15T13:27:10;26.20;52.90
16247;DHT22;8231;50.866;7.944;2022-07-15T13:29:38;26.10;53.80
16247;DHT22;8231;50.866;7.944;2022-07-15T13:32:06;26.10;53.80
16247;DHT22;8231;50.866;7.944;2022-07-15T13:34:35;25.70;51.20
16247;DHT22;8231;50.866;7.944;2022-07-15T13:37:04;25.30;50.60
16247;DHT22;8231;50.866;7.944;2022-07-15T13:39:32;25.00;53.10
16247;DHT22;8231;50.866;7.944;2022-07-15T13:42:01;25.30;51.70
16247;DHT22;8231;50.866;7.944;2022-07-15T13:44:29;25.30;53.00
16247;DHT22;8231;50.866;7.944;2022-07-15T13:46:57;25.40;54.30
16247;DHT22;8231;50.866;7.944;2022-07-15T13:49:25;25.50;53.10
16247;DHT22;8231;50.866;7.944;2022-07-15T13:52:09;25.40;55.00
16247;DHT22;8231;50.866;7.944;2022-07-15T13:54:37;25.60;52.80
16247;DHT22;8231;50.866;7.944;2022-07-15T13:57:07;25.80;53.40
16247;DHT22;8231;50.866;7.944;2022-07-15T13:59:35;26.10;54.70
16247;DHT22;8231;50.866;7.944;2022-07-15T14:02:03;26.30;54.50
16247;DHT22;8231;50.866;7.944;2022-07-15T14:04:32;26.10;53.30
16247;DHT22;8231;50.866;7.944;2022-07-15T14:07:00;26.00;53.90
16247;DHT22;8231;50.866;7.944;2022-07-15T14:09:30;26.10;53.10
16247;DHT22;8231;50.866;7.944;2022-07-15T14:11:58;26.20;52.40
16247;DHT22;8231;50.866;7.944;2022-07-15T14:14:27;26.10;53.90
16247;DHT22;8231;50.866;7.944;2022-07-15T14:16:55;26.20;52.40
16247;DHT22;8231;50.866;7.944;2022-07-15T14:19:25;25.80;52.70
16247;DHT22;8231;50.866;7.944;2022-07-15T14:21:53;25.90;52.50
16247;DHT22;8231;50.866;7.944;2022-07-15T14:24:22;26.00;55.00
16247;DHT22;8231;50.866;7.944;2022-07-15T14:26:51;25.90;53.20
16247;DHT22;8231;50.866;7.944;2022-07-15T14:29:20;25.80;54.20
16247;DHT22;8231;50.866;7.944;2022-07-15T14:31:48;25.60;52.20
16247;DHT22;8231;50.866;7.944;2022-07-15T14:34:27;25.60;54.30
16247;DHT22;8231;50.866;7.944;2022-07-15T14:36:56;25.50;55.00
16247;DHT22;8231;50.866;7.944;2022-07-15T14:39:44;25.30;55.30
16247;DHT22;8231;50.866;7.944;2022-07-15T14:42:13;25.00;54.20
16247;DHT22;8231;50.866;7.944;2022-07-15T14:44:42;24.50;56.30
16247;DHT22;8231;50.866;7.944;2022-07-15T14:47:10;24.40;56.10
16247;DHT22;8231;50.866;7.944;2022-07-15T14:49:38;24.30;56.30
16247;DHT22;8231;50.866;7.944;2022-07-15T14:52:06;24.20;57.00
16247;DHT22;8231;50.866;7.944;2022-07-15T14:54:34;24.30;57.60
16247;DHT22;8231;50.866;7.944;2022-07-15T14:57:02;24.30;57.90
16247;DHT22;8231;50.866;7.944;2022-07-15T14:59:32;24.50;58.20
16247;DHT22;8231;50.866;7.944;2022-07-15T15:02:04;24.70;58.40
16247;DHT22;8231;50.866;7.944;2022-07-15T15:04:33;24.70;57.20
16247;DHT22;8231;50.866;7.944;2022-07-15T15:07:01;24.40;57.50
16247;DHT22;8231;50.866;7.944;2022-07-15T15:09:29;24.40;57.60
16247;DHT22;8231;50.866;7.944;2022-07-15T15:11:57;24.20;57.30
16247;DHT22;8231;50.866;7.944;2022-07-15T15:14:36;24.20;57.50
16247;DHT22;8231;50.866;7.944;2022-07-15T15:17:04;24.30;57.90
16247;DHT22;8231;50.866;7.944;2022-07-15T15:19:35;24.10;58.10
16247;DHT22;8231;50.866;7.944;2022-07-15T15:22:04;24.10;58.40
16247;DHT22;8231;50.866;7.944;2022-07-15T15:24:34;24.10;59.30
16247;DHT22;8231;50.866;7.944;2022-07-15T15:27:03;24.00;57.20
16247;DHT22;8231;50.866;7.944;2022-07-15T15:29:33;23.90;59.10
16247;DHT22;8231;50.866;7.944;2022-07-15T15:32:03;23.90;60.30
16247;DHT22;8231;50.866;7.944;2022-07-15T15:34:32;23.90;60.30
16247;DHT22;8231;50.866;7.944;2022-07-15T15:37:00;23.80;60.70
16247;DHT22;8231;50.866;7.944;2022-07-15T15:39:28;23.80;60.60
16247;DHT22;8231;50.866;7.944;2022-07-15T15:41:56;23.80;61.10
16247;DHT22;8231;50.866;7.944;2022-07-15T15:44:24;23.80;61.80
16247;DHT22;8231;50.866;7.944;2022-07-15T15:46:53;23.60;61.70
16247;DHT22;8231;50.866;7.944;2022-07-15T15:49:22;23.30;61.50
16247;DHT22;8231;50.866;7.944;2022-07-15T15:51:50;23.20;62.80
16247;DHT22;8231;50.866;7.944;2022-07-15T15:54:19;23.10;63.40
16247;DHT22;8231;50.866;7.944;2022-07-15T15:56:48;23.10;62.30
16247;DHT22;8231;50.866;7.944;2022-07-15T15:59:16;23.20;63.20
16247;DHT22;8231;50.866;7.944;2022-07-15T16:01:44;23.20;62.30
16247;DHT22;8231;50.866;7.944;2022-07-15T16:04:12;23.20;62.90
16247;DHT22;8231;50.866;7.944;2022-07-15T16:06:42;22.90;61.40
16247;DHT22;8231;50.866;7.944;2022-07-15T16:09:10;23.00;63.50
16247;DHT22;8231;50.866;7.944;2022-07-15T16:11:38;23.20;63.10
16247;DHT22;8231;50.866;7.944;2022-07-15T16:14:07;23.30;61.70
16247;DHT22;8231;50.866;7.944;2022-07-15T16:16:35;23.20;61.80